sensor_id;sensor_type;location;lat;lon;timestamp;pressure;altitude;pressure_sealevel;temperature
62611;BMP280;48683;48.084;17.272;2023-03-20T00:01:16;100477.78;;;7.40
62611;BMP280;48683;48.084;17.272;2023-03-20T00:03:43;100461.25;;;7.31
62611;BMP280;48683;48.084;17.272;2023-03-20T00:06:22;100473.09;;;7.34
62611;BMP280;48683;48.084;17.272;2023-03-20T00:08:50;100477.28;;;7.31
62611;BMP280;48683;48.084;17.272;2023-03-20T00:11:28;100483.78;;;7.34
62611;BMP280;48683;48.084;17.272;2023-03-20T00:13:56;100480.69;;;7.32
62611;BMP280;48683;48.084;17.272;2023-03-20T00:16:22;100486.13;;;7.35
62611;BMP280;48683;48.084;17.272;2023-03-20T00:18:48;100478.00;;;7.32
62611;BMP280;48683;48.084;17.272;2023-03-20T00:21:17;100474.50;;;7.28
62611;BMP280;48683;48.084;17.272;2023-03-20T00:23:43;100480.16;;;7.23
62611;BMP280;48683;48.084;17.272;2023-03-20T00:26:12;100469.72;;;7.14
62611;BMP280;48683;48.084;17.272;2023-03-20T00:28:40;100463.47;;;7.06
62611;BMP280;48683;48.084;17.272;2023-03-20T00:31:29;100465.03;;;7.07
62611;BMP280;48683;48.084;17.272;2023-03-20T00:33:59;100469.53;;;7.03
62611;BMP280;48683;48.084;17.272;2023-03-20T00:36:26;100461.09;;;7.01
62611;BMP280;48683;48.084;17.272;2023-03-20T00:38:52;100463.41;;;7.03
62611;BMP280;48683;48.084;17.272;2023-03-20T00:41:24;100464.88;;;7.00
62611;BMP280;48683;48.084;17.272;2023-03-20T00:43:53;100459.13;;;6.98
62611;BMP280;48683;48.084;17.272;2023-03-20T00:46:20;100454.44;;;6.92
62611;BMP280;48683;48.084;17.272;2023-03-20T00:48:46;100452.06;;;6.87
62611;BMP280;48683;48.084;17.272;2023-03-20T00:51:11;100459.78;;;6.92
62611;BMP280;48683;48.084;17.272;2023-03-20T00:53:37;100463.06;;;6.85
62611;BMP280;48683;48.084;17.272;2023-03-20T00:56:03;100457.19;;;6.95
62611;BMP280;48683;48.084;17.272;2023-03-20T00:58:28;100476.63;;;6.96
62611;BMP280;48683;48.084;17.272;2023-03-20T01:00:54;100472.28;;;6.88
62611;BMP280;48683;48.084;17.272;2023-03-20T01:03:22;100476.78;;;6.84
62611;BMP280;48683;48.084;17.272;2023-03-20T01:05:49;100459.03;;;6.72
62611;BMP280;48683;48.084;17.272;2023-03-20T01:10:43;100468.50;;;6.69
62611;BMP280;48683;48.084;17.272;2023-03-20T01:13:35;100466.53;;;6.66
62611;BMP280;48683;48.084;17.272;2023-03-20T01:16:00;100455.41;;;6.61
62611;BMP280;48683;48.084;17.272;2023-03-20T01:18:25;100471.47;;;6.64
62611;BMP280;48683;48.084;17.272;2023-03-20T01:20:51;100466.41;;;6.59
62611;BMP280;48683;48.084;17.272;2023-03-20T01:23:18;100469.47;;;6.61
62611;BMP280;48683;48.084;17.272;2023-03-20T01:25:44;100461.41;;;6.58
62611;BMP280;48683;48.084;17.272;2023-03-20T01:28:18;100469.00;;;6.56
62611;BMP280;48683;48.084;17.272;2023-03-20T01:30:44;100461.72;;;6.53
62611;BMP280;48683;48.084;17.272;2023-03-20T01:33:21;100473.16;;;6.53
62611;BMP280;48683;48.084;17.272;2023-03-20T01:35:48;100463.94;;;6.51
62611;BMP280;48683;48.084;17.272;2023-03-20T01:40:58;100462.50;;;6.53
62611;BMP280;48683;48.084;17.272;2023-03-20T01:43:27;100466.97;;;6.68
62611;BMP280;48683;48.084;17.272;2023-03-20T01:46:03;100473.63;;;6.78
62611;BMP280;48683;48.084;17.272;2023-03-20T01:51:26;100467.16;;;6.79
62611;BMP280;48683;48.084;17.272;2023-03-20T01:54:05;100434.34;;;6.56
62611;BMP280;48683;48.084;17.272;2023-03-20T01:56:36;100471.78;;;6.82
62611;BMP280;48683;48.084;17.272;2023-03-20T01:59:15;100469.19;;;6.86
62611;BMP280;48683;48.084;17.272;2023-03-20T02:01:42;100479.59;;;6.91
62611;BMP280;48683;48.084;17.272;2023-03-20T02:04:10;100468.84;;;6.87
62611;BMP280;48683;48.084;17.272;2023-03-20T02:06:36;100477.91;;;6.83
62611;BMP280;48683;48.084;17.272;2023-03-20T02:09:03;100464.72;;;6.71
62611;BMP280;48683;48.084;17.272;2023-03-20T02:11:29;100465.44;;;6.67
62611;BMP280;48683;48.084;17.272;2023-03-20T02:13:57;100468.44;;;6.66
62611;BMP280;48683;48.084;17.272;2023-03-20T02:16:23;100471.41;;;6.61
62611;BMP280;48683;48.084;17.272;2023-03-20T02:18:50;100469.78;;;6.56
62611;BMP280;48683;48.084;17.272;2023-03-20T02:33:00;100488.72;;;6.51
62611;BMP280;48683;48.084;17.272;2023-03-20T02:38:24;100485.22;;;6.47
62611;BMP280;48683;48.084;17.272;2023-03-20T02:41:01;100482.75;;;6.39
62611;BMP280;48683;48.084;17.272;2023-03-20T02:43:55;100474.34;;;6.37
62611;BMP280;48683;48.084;17.272;2023-03-20T02:46:33;100477.47;;;6.42
62611;BMP280;48683;48.084;17.272;2023-03-20T02:49:08;100491.72;;;6.50
62611;BMP280;48683;48.084;17.272;2023-03-20T02:51:41;100490.97;;;6.49
62611;BMP280;48683;48.084;17.272;2023-03-20T03:02:06;100483.78;;;6.34
62611;BMP280;48683;48.084;17.272;2023-03-20T03:04:36;100488.72;;;6.32
62611;BMP280;48683;48.084;17.272;2023-03-20T03:07:04;100493.97;;;6.29
62611;BMP280;48683;48.084;17.272;2023-03-20T03:09:42;100503.84;;;6.28
62611;BMP280;48683;48.084;17.272;2023-03-20T03:12:22;100495.44;;;6.26
62611;BMP280;48683;48.084;17.272;2023-03-20T03:14:52;100495.34;;;6.22
62611;BMP280;48683;48.084;17.272;2023-03-20T03:17:22;100508.19;;;6.17
62611;BMP280;48683;48.084;17.272;2023-03-20T03:19:52;100511.25;;;6.19
62611;BMP280;48683;48.084;17.272;2023-03-20T03:22:19;100522.53;;;6.28
62611;BMP280;48683;48.084;17.272;2023-03-20T03:24:48;100522.19;;;6.30
62611;BMP280;48683;48.084;17.272;2023-03-20T03:29:51;100520.00;;;6.35
62611;BMP280;48683;48.084;17.272;2023-03-20T03:32:24;100517.78;;;6.37
62611;BMP280;48683;48.084;17.272;2023-03-20T03:34:50;100511.75;;;6.40
62611;BMP280;48683;48.084;17.272;2023-03-20T03:37:36;100514.13;;;6.45
62611;BMP280;48683;48.084;17.272;2023-03-20T03:43:07;100515.72;;;6.50
62611;BMP280;48683;48.084;17.272;2023-03-20T03:45:43;100506.47;;;6.44
62611;BMP280;48683;48.084;17.272;2023-03-20T03:48:13;100513.84;;;6.50
62611;BMP280;48683;48.084;17.272;2023-03-20T03:50:53;100510.84;;;6.52
62611;BMP280;48683;48.084;17.272;2023-03-20T03:53:24;100500.94;;;6.52
62611;BMP280;48683;48.084;17.272;2023-03-20T03:55:54;100494.91;;;6.55
62611;BMP280;48683;48.084;17.272;2023-03-20T03:58:28;100505.25;;;6.57
62611;BMP280;48683;48.084;17.272;2023-03-20T04:00:57;100500.16;;;6.52
62611;BMP280;48683;48.084;17.272;2023-03-20T04:03:27;100504.38;;;6.53
62611;BMP280;48683;48.084;17.272;2023-03-20T04:05:55;100508.25;;;6.55
62611;BMP280;48683;48.084;17.272;2023-03-20T04:08:21;100502.50;;;6.53
62611;BMP280;48683;48.084;17.272;2023-03-20T04:10:47;100502.13;;;6.55
62611;BMP280;48683;48.084;17.272;2023-03-20T04:13:12;100510.50;;;6.53
62611;BMP280;48683;48.084;17.272;2023-03-20T04:15:37;100520.03;;;6.54
62611;BMP280;48683;48.084;17.272;2023-03-20T04:18:04;100509.66;;;6.49
62611;BMP280;48683;48.084;17.272;2023-03-20T04:20:29;100516.94;;;6.52
62611;BMP280;48683;48.084;17.272;2023-03-20T04:22:54;100508.09;;;6.48
62611;BMP280;48683;48.084;17.272;2023-03-20T04:25:22;100508.50;;;6.50
62611;BMP280;48683;48.084;17.272;2023-03-20T04:27:48;100504.25;;;6.46
62611;BMP280;48683;48.084;17.272;2023-03-20T04:30:15;100507.72;;;6.50
62611;BMP280;48683;48.084;17.272;2023-03-20T04:32:40;100511.94;;;6.51
62611;BMP280;48683;48.084;17.272;2023-03-20T04:35:06;100512.16;;;6.42
62611;BMP280;48683;48.084;17.272;2023-03-20T04:37:32;100510.81;;;6.33
62611;BMP280;48683;48.084;17.272;2023-03-20T04:39:57;100511.81;;;6.09
62611;BMP280;48683;48.084;17.272;2023-03-20T04:42:22;100504.28;;;5.80
62611;BMP280;48683;48.084;17.272;2023-03-20T04:44:48;100513.63;;;5.73
62611;BMP280;48683;48.084;17.272;2023-03-20T04:47:13;100509.69;;;5.36
62611;BMP280;48683;48.084;17.272;2023-03-20T04:49:38;100503.19;;;5.21
62611;BMP280;48683;48.084;17.272;2023-03-20T04:52:04;100515.13;;;5.12
62611;BMP280;48683;48.084;17.272;2023-03-20T04:54:29;100532.97;;;5.11
62611;BMP280;48683;48.084;17.272;2023-03-20T04:56:55;100524.50;;;5.21
62611;BMP280;48683;48.084;17.272;2023-03-20T04:59:20;100529.56;;;5.26
62611;BMP280;48683;48.084;17.272;2023-03-20T05:01:45;100535.59;;;5.39
62611;BMP280;48683;48.084;17.272;2023-03-20T05:04:11;100534.13;;;5.42
62611;BMP280;48683;48.084;17.272;2023-03-20T05:06:36;100542.66;;;5.47
62611;BMP280;48683;48.084;17.272;2023-03-20T05:09:02;100550.59;;;5.59
62611;BMP280;48683;48.084;17.272;2023-03-20T05:11:28;100560.31;;;5.67
62611;BMP280;48683;48.084;17.272;2023-03-20T05:13:54;100556.25;;;5.58
62611;BMP280;48683;48.084;17.272;2023-03-20T05:16:19;100563.72;;;5.52
62611;BMP280;48683;48.084;17.272;2023-03-20T05:18:45;100554.59;;;5.53
62611;BMP280;48683;48.084;17.272;2023-03-20T05:21:10;100573.34;;;5.57
62611;BMP280;48683;48.084;17.272;2023-03-20T05:23:36;100574.09;;;5.57
62611;BMP280;48683;48.084;17.272;2023-03-20T05:26:01;100568.88;;;5.61
62611;BMP280;48683;48.084;17.272;2023-03-20T05:28:27;100572.84;;;5.67
62611;BMP280;48683;48.084;17.272;2023-03-20T05:30:53;100563.03;;;5.55
62611;BMP280;48683;48.084;17.272;2023-03-20T05:33:18;100569.81;;;5.53
62611;BMP280;48683;48.084;17.272;2023-03-20T05:35:44;100583.91;;;5.69
62611;BMP280;48683;48.084;17.272;2023-03-20T05:38:10;100575.22;;;5.72
62611;BMP280;48683;48.084;17.272;2023-03-20T05:40:35;100576.44;;;5.74
62611;BMP280;48683;48.084;17.272;2023-03-20T05:43:01;100579.44;;;5.73
62611;BMP280;48683;48.084;17.272;2023-03-20T05:45:26;100572.06;;;5.66
62611;BMP280;48683;48.084;17.272;2023-03-20T05:47:52;100584.94;;;5.80
62611;BMP280;48683;48.084;17.272;2023-03-20T05:50:18;100572.75;;;5.79
62611;BMP280;48683;48.084;17.272;2023-03-20T05:52:46;100583.63;;;5.86
62611;BMP280;48683;48.084;17.272;2023-03-20T05:55:12;100589.44;;;5.92
62611;BMP280;48683;48.084;17.272;2023-03-20T05:57:37;100593.50;;;6.01
62611;BMP280;48683;48.084;17.272;2023-03-20T06:00:03;100586.44;;;6.09
62611;BMP280;48683;48.084;17.272;2023-03-20T06:02:29;100585.19;;;6.03
62611;BMP280;48683;48.084;17.272;2023-03-20T06:04:55;100601.41;;;6.13
62611;BMP280;48683;48.084;17.272;2023-03-20T06:07:20;100598.56;;;6.22
62611;BMP280;48683;48.084;17.272;2023-03-20T06:09:45;100597.03;;;6.21
62611;BMP280;48683;48.084;17.272;2023-03-20T06:12:11;100600.78;;;6.20
62611;BMP280;48683;48.084;17.272;2023-03-20T06:14:36;100603.44;;;6.36
62611;BMP280;48683;48.084;17.272;2023-03-20T06:17:02;100604.38;;;6.43
62611;BMP280;48683;48.084;17.272;2023-03-20T06:19:27;100608.25;;;6.46
62611;BMP280;48683;48.084;17.272;2023-03-20T06:21:53;100613.13;;;6.59
62611;BMP280;48683;48.084;17.272;2023-03-20T06:24:18;100610.19;;;6.64
62611;BMP280;48683;48.084;17.272;2023-03-20T06:26:43;100611.97;;;6.76
62611;BMP280;48683;48.084;17.272;2023-03-20T06:29:09;100622.72;;;6.80
62611;BMP280;48683;48.084;17.272;2023-03-20T06:31:35;100616.47;;;6.91
62611;BMP280;48683;48.084;17.272;2023-03-20T06:34:00;100623.59;;;7.03
62611;BMP280;48683;48.084;17.272;2023-03-20T06:36:26;100620.72;;;7.11
62611;BMP280;48683;48.084;17.272;2023-03-20T06:38:52;100625.47;;;7.22
62611;BMP280;48683;48.084;17.272;2023-03-20T06:41:17;100630.75;;;7.37
62611;BMP280;48683;48.084;17.272;2023-03-20T06:43:42;100638.94;;;7.48
62611;BMP280;48683;48.084;17.272;2023-03-20T06:46:08;100642.81;;;7.70
62611;BMP280;48683;48.084;17.272;2023-03-20T06:48:33;100643.47;;;7.86
62611;BMP280;48683;48.084;17.272;2023-03-20T06:50:59;100639.59;;;8.06
62611;BMP280;48683;48.084;17.272;2023-03-20T06:53:24;100643.34;;;8.24
62611;BMP280;48683;48.084;17.272;2023-03-20T06:55:51;100648.13;;;8.34
62611;BMP280;48683;48.084;17.272;2023-03-20T06:58:17;100652.97;;;8.51
62611;BMP280;48683;48.084;17.272;2023-03-20T07:00:42;100642.38;;;8.58
62611;BMP280;48683;48.084;17.272;2023-03-20T07:03:08;100642.13;;;8.67
62611;BMP280;48683;48.084;17.272;2023-03-20T07:05:34;100647.66;;;8.81
62611;BMP280;48683;48.084;17.272;2023-03-20T07:07:59;100651.31;;;8.99
62611;BMP280;48683;48.084;17.272;2023-03-20T07:10:25;100654.09;;;9.06
62611;BMP280;48683;48.084;17.272;2023-03-20T07:12:50;100655.72;;;9.15
62611;BMP280;48683;48.084;17.272;2023-03-20T07:15:16;100651.22;;;9.22
62611;BMP280;48683;48.084;17.272;2023-03-20T07:17:42;100649.25;;;9.16
62611;BMP280;48683;48.084;17.272;2023-03-20T07:20:08;100642.03;;;9.20
62611;BMP280;48683;48.084;17.272;2023-03-20T07:22:34;100660.25;;;9.40
62611;BMP280;48683;48.084;17.272;2023-03-20T07:25:00;100661.72;;;9.68
62611;BMP280;48683;48.084;17.272;2023-03-20T07:27:25;100657.59;;;9.81
62611;BMP280;48683;48.084;17.272;2023-03-20T07:29:51;100659.41;;;10.07
62611;BMP280;48683;48.084;17.272;2023-03-20T07:32:16;100653.78;;;10.19
62611;BMP280;48683;48.084;17.272;2023-03-20T07:34:42;100657.72;;;10.32
62611;BMP280;48683;48.084;17.272;2023-03-20T07:37:07;100655.53;;;10.48
62611;BMP280;48683;48.084;17.272;2023-03-20T07:39:33;100658.34;;;10.66
62611;BMP280;48683;48.084;17.272;2023-03-20T07:41:58;100656.97;;;10.93
62611;BMP280;48683;48.084;17.272;2023-03-20T07:44:24;100643.97;;;11.06
62611;BMP280;48683;48.084;17.272;2023-03-20T07:46:49;100649.03;;;11.28
62611;BMP280;48683;48.084;17.272;2023-03-20T07:49:16;100642.63;;;11.58
62611;BMP280;48683;48.084;17.272;2023-03-20T07:51:45;100644.22;;;11.73
62611;BMP280;48683;48.084;17.272;2023-03-20T07:54:11;100648.44;;;11.88
62611;BMP280;48683;48.084;17.272;2023-03-20T07:56:36;100641.56;;;12.12
62611;BMP280;48683;48.084;17.272;2023-03-20T07:59:02;100645.75;;;12.34
62611;BMP280;48683;48.084;17.272;2023-03-20T08:01:27;100645.78;;;12.48
62611;BMP280;48683;48.084;17.272;2023-03-20T08:03:53;100636.88;;;12.62
62611;BMP280;48683;48.084;17.272;2023-03-20T08:06:18;100626.09;;;12.65
62611;BMP280;48683;48.084;17.272;2023-03-20T08:08:43;100642.25;;;12.79
62611;BMP280;48683;48.084;17.272;2023-03-20T08:11:09;100639.88;;;12.89
62611;BMP280;48683;48.084;17.272;2023-03-20T08:13:35;100630.28;;;12.91
62611;BMP280;48683;48.084;17.272;2023-03-20T08:16:01;100632.91;;;13.05
62611;BMP280;48683;48.084;17.272;2023-03-20T08:18:26;100640.59;;;13.21
62611;BMP280;48683;48.084;17.272;2023-03-20T08:20:51;100635.53;;;13.30
62611;BMP280;48683;48.084;17.272;2023-03-20T08:23:17;100636.28;;;13.38
62611;BMP280;48683;48.084;17.272;2023-03-20T08:25:49;100631.59;;;13.45
62611;BMP280;48683;48.084;17.272;2023-03-20T08:28:15;100631.94;;;13.58
62611;BMP280;48683;48.084;17.272;2023-03-20T08:30:41;100636.09;;;13.66
62611;BMP280;48683;48.084;17.272;2023-03-20T08:33:06;100638.28;;;13.85
62611;BMP280;48683;48.084;17.272;2023-03-20T08:35:32;100634.38;;;13.90
62611;BMP280;48683;48.084;17.272;2023-03-20T08:37:57;100625.09;;;13.98
62611;BMP280;48683;48.084;17.272;2023-03-20T08:40:22;100631.22;;;14.02
62611;BMP280;48683;48.084;17.272;2023-03-20T08:42:48;100634.56;;;14.16
62611;BMP280;48683;48.084;17.272;2023-03-20T08:45:14;100628.69;;;14.28
62611;BMP280;48683;48.084;17.272;2023-03-20T08:47:39;100628.59;;;14.43
62611;BMP280;48683;48.084;17.272;2023-03-20T08:50:05;100620.13;;;14.37
62611;BMP280;48683;48.084;17.272;2023-03-20T08:52:32;100621.50;;;14.56
62611;BMP280;48683;48.084;17.272;2023-03-20T08:54:57;100637.53;;;14.73
62611;BMP280;48683;48.084;17.272;2023-03-20T08:57:22;100634.75;;;14.81
62611;BMP280;48683;48.084;17.272;2023-03-20T08:59:48;100625.53;;;14.78
62611;BMP280;48683;48.084;17.272;2023-03-20T09:02:13;100618.31;;;14.64
62611;BMP280;48683;48.084;17.272;2023-03-20T09:04:38;100629.69;;;14.86
62611;BMP280;48683;48.084;17.272;2023-03-20T09:07:05;100627.09;;;15.06
62611;BMP280;48683;48.084;17.272;2023-03-20T09:09:30;100618.56;;;15.11
62611;BMP280;48683;48.084;17.272;2023-03-20T09:11:57;100631.63;;;15.16
62611;BMP280;48683;48.084;17.272;2023-03-20T09:14:23;100632.13;;;15.38
62611;BMP280;48683;48.084;17.272;2023-03-20T09:16:49;100623.88;;;15.48
62611;BMP280;48683;48.084;17.272;2023-03-20T09:19:15;100628.06;;;15.80
62611;BMP280;48683;48.084;17.272;2023-03-20T09:21:41;100620.66;;;15.84
62611;BMP280;48683;48.084;17.272;2023-03-20T09:24:06;100623.34;;;15.87
62611;BMP280;48683;48.084;17.272;2023-03-20T09:26:32;100618.59;;;15.91
62611;BMP280;48683;48.084;17.272;2023-03-20T09:28:58;100608.25;;;15.86
62611;BMP280;48683;48.084;17.272;2023-03-20T09:31:23;100618.97;;;16.17
62611;BMP280;48683;48.084;17.272;2023-03-20T09:33:48;100610.72;;;16.24
62611;BMP280;48683;48.084;17.272;2023-03-20T09:36:14;100607.19;;;16.27
62611;BMP280;48683;48.084;17.272;2023-03-20T09:38:40;100605.72;;;16.45
62611;BMP280;48683;48.084;17.272;2023-03-20T09:41:21;100595.03;;;16.35
62611;BMP280;48683;48.084;17.272;2023-03-20T09:44:06;100606.78;;;16.28
62611;BMP280;48683;48.084;17.272;2023-03-20T09:52:31;100609.13;;;16.49
62611;BMP280;48683;48.084;17.272;2023-03-20T09:55:01;100607.06;;;16.57
62611;BMP280;48683;48.084;17.272;2023-03-20T09:57:40;100606.72;;;16.75
62611;BMP280;48683;48.084;17.272;2023-03-20T10:00:10;100603.38;;;16.87
62611;BMP280;48683;48.084;17.272;2023-03-20T10:02:47;100599.06;;;16.89
62611;BMP280;48683;48.084;17.272;2023-03-20T10:07:42;100589.03;;;17.06
62611;BMP280;48683;48.084;17.272;2023-03-20T10:10:12;100599.44;;;17.27
62611;BMP280;48683;48.084;17.272;2023-03-20T10:12:58;100588.06;;;17.32
62611;BMP280;48683;48.084;17.272;2023-03-20T10:15:37;100579.44;;;17.37
62611;BMP280;48683;48.084;17.272;2023-03-20T10:18:24;100572.31;;;17.27
62611;BMP280;48683;48.084;17.272;2023-03-20T10:23:39;100562.41;;;17.37
62611;BMP280;48683;48.084;17.272;2023-03-20T10:26:11;100573.97;;;17.57
62611;BMP280;48683;48.084;17.272;2023-03-20T10:28:51;100566.72;;;17.34
62611;BMP280;48683;48.084;17.272;2023-03-20T10:34:01;100562.75;;;17.55
62611;BMP280;48683;48.084;17.272;2023-03-20T10:42:01;100556.25;;;17.69
62611;BMP280;48683;48.084;17.272;2023-03-20T10:44:33;100558.78;;;17.76
62611;BMP280;48683;48.084;17.272;2023-03-20T10:47:02;100557.16;;;17.78
62611;BMP280;48683;48.084;17.272;2023-03-20T10:49:33;100556.84;;;17.92
62611;BMP280;48683;48.084;17.272;2023-03-20T10:52:03;100551.06;;;17.90
62611;BMP280;48683;48.084;17.272;2023-03-20T10:54:34;100533.00;;;17.84
62611;BMP280;48683;48.084;17.272;2023-03-20T10:57:02;100543.66;;;18.07
62611;BMP280;48683;48.084;17.272;2023-03-20T10:59:35;100543.81;;;18.16
62611;BMP280;48683;48.084;17.272;2023-03-20T11:02:10;100535.84;;;18.09
62611;BMP280;48683;48.084;17.272;2023-03-20T11:04:36;100521.81;;;18.11
62611;BMP280;48683;48.084;17.272;2023-03-20T11:09:36;100528.19;;;18.33
62611;BMP280;48683;48.084;17.272;2023-03-20T11:12:02;100523.41;;;18.24
62611;BMP280;48683;48.084;17.272;2023-03-20T11:14:33;100519.16;;;18.23
62611;BMP280;48683;48.084;17.272;2023-03-20T11:17:01;100521.41;;;18.12
62611;BMP280;48683;48.084;17.272;2023-03-20T11:19:34;100519.16;;;18.23
62611;BMP280;48683;48.084;17.272;2023-03-20T11:22:09;100512.34;;;18.31
62611;BMP280;48683;48.084;17.272;2023-03-20T11:24:46;100511.91;;;18.33
62611;BMP280;48683;48.084;17.272;2023-03-20T11:27:24;100512.75;;;18.30
62611;BMP280;48683;48.084;17.272;2023-03-20T11:29:51;100508.47;;;18.45
62611;BMP280;48683;48.084;17.272;2023-03-20T11:35:10;100503.44;;;18.31
62611;BMP280;48683;48.084;17.272;2023-03-20T11:37:43;100510.16;;;18.68
62611;BMP280;48683;48.084;17.272;2023-03-20T11:42:36;100488.66;;;18.44
62611;BMP280;48683;48.084;17.272;2023-03-20T11:45:14;100506.00;;;18.50
62611;BMP280;48683;48.084;17.272;2023-03-20T11:47:40;100504.66;;;18.71
62611;BMP280;48683;48.084;17.272;2023-03-20T11:50:24;100496.91;;;18.70
62611;BMP280;48683;48.084;17.272;2023-03-20T11:52:50;100499.66;;;18.82
62611;BMP280;48683;48.084;17.272;2023-03-20T11:55:26;100496.16;;;18.82
62611;BMP280;48683;48.084;17.272;2023-03-20T11:57:55;100486.13;;;18.54
62611;BMP280;48683;48.084;17.272;2023-03-20T12:00:23;100481.47;;;18.38
62611;BMP280;48683;48.084;17.272;2023-03-20T12:02:50;100481.28;;;18.32
62611;BMP280;48683;48.084;17.272;2023-03-20T12:07:59;100475.59;;;18.27
62611;BMP280;48683;48.084;17.272;2023-03-20T12:10:30;100478.00;;;18.37
62611;BMP280;48683;48.084;17.272;2023-03-20T12:13:05;100471.53;;;18.47
62611;BMP280;48683;48.084;17.272;2023-03-20T12:15:40;100462.25;;;18.45
62611;BMP280;48683;48.084;17.272;2023-03-20T12:18:31;100457.44;;;18.24
62611;BMP280;48683;48.084;17.272;2023-03-20T12:21:07;100450.91;;;18.21
62611;BMP280;48683;48.084;17.272;2023-03-20T12:23:39;100446.56;;;18.24
62611;BMP280;48683;48.084;17.272;2023-03-20T12:31:39;100442.69;;;18.37
62611;BMP280;48683;48.084;17.272;2023-03-20T12:34:21;100450.53;;;18.48
62611;BMP280;48683;48.084;17.272;2023-03-20T12:36:49;100449.63;;;18.38
62611;BMP280;48683;48.084;17.272;2023-03-20T12:39:25;100452.25;;;18.42
62611;BMP280;48683;48.084;17.272;2023-03-20T12:44:51;100442.31;;;18.52
62611;BMP280;48683;48.084;17.272;2023-03-20T12:58:02;100425.72;;;18.46
62611;BMP280;48683;48.084;17.272;2023-03-20T13:00:39;100431.34;;;18.55
62611;BMP280;48683;48.084;17.272;2023-03-20T13:06:09;100425.41;;;18.44
62611;BMP280;48683;48.084;17.272;2023-03-20T13:17:08;100410.69;;;18.16
62611;BMP280;48683;48.084;17.272;2023-03-20T13:19:45;100404.50;;;18.16
62611;BMP280;48683;48.084;17.272;2023-03-20T13:22:43;100413.72;;;18.18
62611;BMP280;48683;48.084;17.272;2023-03-20T13:25:40;100403.09;;;18.24
62611;BMP280;48683;48.084;17.272;2023-03-20T13:30:44;100395.59;;;18.40
62611;BMP280;48683;48.084;17.272;2023-03-20T13:33:30;100400.34;;;18.65
62611;BMP280;48683;48.084;17.272;2023-03-20T13:36:41;100392.94;;;18.53
62611;BMP280;48683;48.084;17.272;2023-03-20T13:38:53;100395.66;;;18.53
62611;BMP280;48683;48.084;17.272;2023-03-20T13:41:23;100393.38;;;18.64
62611;BMP280;48683;48.084;17.272;2023-03-20T13:43:52;100376.72;;;18.49
62611;BMP280;48683;48.084;17.272;2023-03-20T13:46:22;100376.50;;;18.44
62611;BMP280;48683;48.084;17.272;2023-03-20T13:48:50;100378.91;;;18.55
62611;BMP280;48683;48.084;17.272;2023-03-20T13:51:31;100373.69;;;18.60
62611;BMP280;48683;48.084;17.272;2023-03-20T13:54:17;100377.81;;;18.65
62611;BMP280;48683;48.084;17.272;2023-03-20T14:02:26;100372.56;;;18.95
62611;BMP280;48683;48.084;17.272;2023-03-20T14:05:18;100372.56;;;18.95
62611;BMP280;48683;48.084;17.272;2023-03-20T14:07:45;100369.63;;;19.03
62611;BMP280;48683;48.084;17.272;2023-03-20T14:12:55;100375.53;;;18.88
62611;BMP280;48683;48.084;17.272;2023-03-20T14:15:26;100364.75;;;18.72
62611;BMP280;48683;48.084;17.272;2023-03-20T14:17:51;100366.81;;;18.43
62611;BMP280;48683;48.084;17.272;2023-03-20T14:20:30;100365.53;;;18.47
62611;BMP280;48683;48.084;17.272;2023-03-20T14:22:56;100368.00;;;18.29
62611;BMP280;48683;48.084;17.272;2023-03-20T14:25:22;100378.22;;;17.84
62611;BMP280;48683;48.084;17.272;2023-03-20T14:35:36;100382.31;;;17.31
62611;BMP280;48683;48.084;17.272;2023-03-20T14:38:26;100382.75;;;17.13
62611;BMP280;48683;48.084;17.272;2023-03-20T14:43:56;100385.22;;;17.07
62611;BMP280;48683;48.084;17.272;2023-03-20T14:46:39;100384.47;;;16.91
62611;BMP280;48683;48.084;17.272;2023-03-20T14:51:49;100376.72;;;16.73
62611;BMP280;48683;48.084;17.272;2023-03-20T14:56:50;100382.31;;;16.66
62611;BMP280;48683;48.084;17.272;2023-03-20T14:59:17;100396.31;;;16.65
62611;BMP280;48683;48.084;17.272;2023-03-20T15:06:50;100402.81;;;16.47
62611;BMP280;48683;48.084;17.272;2023-03-20T15:09:19;100392.34;;;16.49
62611;BMP280;48683;48.084;17.272;2023-03-20T15:11:46;100399.56;;;16.56
62611;BMP280;48683;48.084;17.272;2023-03-20T15:14:19;100392.56;;;16.58
62611;BMP280;48683;48.084;17.272;2023-03-20T15:16:46;100401.63;;;16.68
62611;BMP280;48683;48.084;17.272;2023-03-20T15:19:19;100402.47;;;16.81
62611;BMP280;48683;48.084;17.272;2023-03-20T15:21:46;100409.09;;;16.96
62611;BMP280;48683;48.084;17.272;2023-03-20T15:24:22;100404.72;;;17.02
62611;BMP280;48683;48.084;17.272;2023-03-20T15:26:58;100400.47;;;17.01
62611;BMP280;48683;48.084;17.272;2023-03-20T15:29:25;100411.06;;;17.12
62611;BMP280;48683;48.084;17.272;2023-03-20T15:31:54;100398.03;;;17.07
62611;BMP280;48683;48.084;17.272;2023-03-20T15:34:23;100405.72;;;17.08
62611;BMP280;48683;48.084;17.272;2023-03-20T15:36:50;100396.66;;;16.99
62611;BMP280;48683;48.084;17.272;2023-03-20T15:39:18;100400.06;;;17.03
62611;BMP280;48683;48.084;17.272;2023-03-20T15:41:57;100401.22;;;17.02
62611;BMP280;48683;48.084;17.272;2023-03-20T15:44:34;100399.78;;;16.97
62611;BMP280;48683;48.084;17.272;2023-03-20T15:47:02;100409.19;;;16.93
62611;BMP280;48683;48.084;17.272;2023-03-20T15:49:31;100406.47;;;16.93
62611;BMP280;48683;48.084;17.272;2023-03-20T15:51:59;100396.97;;;16.85
62611;BMP280;48683;48.084;17.272;2023-03-20T15:54:25;100405.38;;;16.90
62611;BMP280;48683;48.084;17.272;2023-03-20T15:56:51;100400.53;;;16.82
62611;BMP280;48683;48.084;17.272;2023-03-20T15:59:21;100408.84;;;16.75
62611;BMP280;48683;48.084;17.272;2023-03-20T16:01:50;100400.94;;;16.64
62611;BMP280;48683;48.084;17.272;2023-03-20T16:04:18;100411.78;;;16.64
62611;BMP280;48683;48.084;17.272;2023-03-20T16:06:51;100407.22;;;16.61
62611;BMP280;48683;48.084;17.272;2023-03-20T16:09:17;100397.19;;;16.58
62611;BMP280;48683;48.084;17.272;2023-03-20T16:11:46;100409.84;;;16.65